Strona główna
METAR-TAF:

METAR-TAF

Lotnisko :

Odate-Noshiro, Japonia

Szerokość geograficzna: 40-11N, Długość geograficzna: 140-12E, wysokość: 84 m

Aktualna obserwacja pogody

Raport powstał 6 godziny i 26 minut temu, godzina 10:00 UTC
Wiatr 5 kt od wschód
Temperatura 17°C
Wilgotność 100%
Ciśnienie 1016 hPa
Widzialność 10 km lub więcej
Mało chmury na wysokości 3000 ft
Przerywane chmury

METAR: RJSR 231000Z 09005KT 9999 FEW030 BKN/// 17/17 Q1016

czas: 01:26 (16:26 UTC)


TAF: brakujący

Obserwacja i prognoza pogody dla ponad 4000 lotnisk (raport METAR i TAF).

Dostępne stacje oznaczono żółtymi i czerwonymi punktami na mapie.

Najedź kursorem aby zobaczyć nazwę stacji.

Kliknij aby zobaczyć obserwacje i prognozy pogody.

Aby zmienić mapę: kliknij na zielony przycisk z czarnym krzyżykiem, aby powiększyć; na zielony przycisk z myślnikiem, aby pomniejszyć; na zielone strzałki, aby przejść do map sąsiednich.


METAR-TAF: